Time;durP1;ratioP1;P1;durP2;ratioP2;P2;SDS_P1;SDS_P2;PMS_P1;PMS_P2;Temp;Humidity;BMP_temperature;BMP_pressure;BME280_temperature;BME280_humidity;BME280_pressure;Samples;Min_cycle;Max_cycle;Signal;HPM_P1;HPM_P2
2023/02/27 00:02:18;;;;;;;1.93;1.50;;;;;;;-1.41;72.13;99640.94;5112524;28;42227;-79
2023/02/27 00:04:46;;;;;;;2.40;1.53;;;;;;;-1.55;72.21;99617.59;5146062;27;40778;-78
2023/02/27 00:07:13;;;;;;;2.03;1.50;;;;;;;-1.47;72.59;99636.59;5094707;28;42219;-77
2023/02/27 00:09:41;;;;;;;2.20;1.70;;;;;;;-1.47;72.39;99631.41;5128496;27;42837;-78
2023/02/27 00:12:10;;;;;;;2.03;1.83;;;;;;;-1.50;72.57;99637.50;5111321;28;42399;-78
2023/02/27 00:14:38;;;;;;;2.13;1.60;;;;;;;-1.56;72.28;99636.63;5112531;28;40207;-79
2023/02/27 00:17:06;;;;;;;1.70;1.50;;;;;;;-1.54;72.30;99638.38;5111756;28;42468;-78
2023/02/27 00:19:36;;;;;;;1.67;1.30;;;;;;;-1.68;72.44;99621.06;5145787;27;42428;-79
2023/02/27 00:22:03;;;;;;;4.07;1.60;;;;;;;-1.58;72.61;99643.56;5111468;28;42298;-78
2023/02/27 00:24:31;;;;;;;4.53;1.67;;;;;;;-1.61;72.03;99639.25;5128704;27;38969;-79
2023/02/27 00:26:59;;;;;;;3.17;1.77;;;;;;;-1.62;72.66;99647.03;5111445;28;40904;-78
2023/02/27 00:29:26;;;;;;;3.63;1.63;;;;;;;-1.64;72.24;99646.19;5145965;27;43780;-78
2023/02/27 00:31:54;;;;;;;2.77;1.90;;;;;;;-1.85;71.93;99621.94;5111324;28;41177;-79
2023/02/27 00:34:22;;;;;;;3.53;1.60;;;;;;;-1.87;72.96;99626.28;5094487;28;39054;-78
2023/02/27 00:36:51;;;;;;;2.63;1.60;;;;;;;-1.72;72.48;99645.28;5094221;28;40688;-78
2023/02/27 00:39:19;;;;;;;3.10;1.83;;;;;;;-1.98;73.09;99607.25;5128179;27;41928;-78
2023/02/27 00:41:46;;;;;;;2.90;1.63;;;;;;;-1.78;72.58;99645.31;5112439;28;42463;-78
2023/02/27 00:44:14;;;;;;;2.43;1.77;;;;;;;-1.73;72.54;99653.97;5111502;28;39836;-78
2023/02/27 00:46:42;;;;;;;2.67;1.83;;;;;;;-1.98;72.81;99612.44;5145894;27;41622;-78
2023/02/27 00:49:10;;;;;;;2.07;1.50;;;;;;;-1.74;72.78;99657.44;5094003;28;43364;-79
2023/02/27 00:51:38;;;;;;;1.80;1.70;;;;;;;-1.77;72.73;99652.25;5094108;28;41437;-79
2023/02/27 00:54:08;;;;;;;4.03;1.77;;;;;;;-1.79;72.54;99654.84;5094539;28;39852;-79
2023/02/27 00:56:36;;;;;;;4.83;1.70;;;;;;;-1.79;72.19;99669.53;5114632;28;41911;-79
2023/02/27 00:59:03;;;;;;;3.63;1.77;;;;;;;-1.83;71.92;99664.34;5114783;28;43641;-79
2023/02/27 01:01:31;;;;;;;3.73;1.80;;;;;;;-1.84;71.84;99667.81;5114589;28;41965;-78
2023/02/27 01:03:59;;;;;;;3.83;1.77;;;;;;;-1.86;71.67;99668.69;5149267;27;40633;-78
2023/02/27 01:06:27;;;;;;;2.20;1.43;;;;;;;-1.91;71.38;99671.28;5132193;27;40692;-78
2023/02/27 01:08:55;;;;;;;2.93;1.47;;;;;;;-1.95;71.45;99669.53;5114408;28;41567;-79
2023/02/27 01:11:26;;;;;;;3.50;1.67;;;;;;;-1.98;71.27;99666.94;5114332;28;43208;-79
2023/02/27 01:13:54;;;;;;;2.93;1.60;;;;;;;-2.02;71.67;99667.81;5131745;27;38878;-79
2023/02/27 01:16:22;;;;;;;1.93;1.40;;;;;;;-2.10;71.16;99659.13;5097650;28;40861;-79
2023/02/27 01:18:50;;;;;;;2.13;1.40;;;;;;;-2.07;71.47;99664.34;5114440;28;43165;-79
2023/02/27 01:21:17;;;;;;;2.30;1.60;;;;;;;-2.11;72.05;99657.44;5097523;28;41585;-79
2023/02/27 01:23:45;;;;;;;2.50;1.50;;;;;;;-2.15;71.51;99655.69;5148692;27;40971;-79
2023/02/27 01:26:13;;;;;;;2.00;1.50;;;;;;;-2.18;71.48;99658.28;5114526;28;40497;-79
2023/02/27 01:28:43;;;;;;;2.10;1.60;;;;;;;-2.21;71.20;99651.34;5097348;28;41947;-78
2023/02/27 01:31:13;;;;;;;1.53;1.30;;;;;;;-2.25;71.63;99653.94;5112319;28;42640;-79
2023/02/27 01:33:40;;;;;;;1.83;1.67;;;;;;;-2.30;72.17;99650.47;5131493;27;39854;-78
2023/02/27 01:36:09;;;;;;;3.13;1.47;;;;;;;-2.40;72.18;99634.03;5131414;27;41646;-78
2023/02/27 01:38:37;;;;;;;2.60;1.40;;;;;;;-2.30;73.39;99645.28;5114134;28;41898;-79
2023/02/27 01:41:06;;;;;;;2.57;1.90;;;;;;;-2.56;73.17;99607.19;5131119;27;41996;-79
2023/02/27 01:43:34;;;;;;;2.20;1.60;;;;;;;-2.32;73.25;99647.88;5096801;28;38849;-78
2023/02/27 01:46:03;;;;;;;1.53;1.10;;;;;;;-2.33;73.53;99642.66;5115254;28;42958;-78
2023/02/27 01:48:34;;;;;;;2.20;1.40;;;;;;;-2.34;73.65;99643.53;5131216;27;41835;-79
2023/02/27 01:51:07;;;;;;;1.60;1.10;;;;;;;-2.34;73.32;99644.41;5145215;27;42185;-79
2023/02/27 01:53:37;;;;;;;1.73;1.23;;;;;;;-2.36;73.37;99642.69;5145597;27;40909;-79
2023/02/27 01:56:09;;;;;;;2.50;1.40;;;;;;;-2.38;73.02;99642.69;5097064;28;42979;-79
2023/02/27 01:58:37;;;;;;;1.57;1.33;;;;;;;-2.40;73.37;99638.34;5097167;28;42517;-79
2023/02/27 02:01:07;;;;;;;1.60;1.20;;;;;;;-2.41;73.51;99644.41;5113935;28;41859;-79
2023/02/27 02:03:40;;;;;;;3.47;1.30;;;;;;;-2.58;73.55;99623.59;5130905;27;39897;-79
2023/02/27 02:06:09;;;;;;;1.90;1.63;;;;;;;-2.40;73.23;99653.91;5096380;28;41297;-78
2023/02/27 02:08:42;;;;;;;1.43;1.30;;;;;;;-2.40;73.39;99648.72;5096731;28;41759;-79
2023/02/27 02:11:11;;;;;;;3.57;1.70;;;;;;;-2.48;73.39;99637.47;5130739;27;41196;-78
2023/02/27 02:13:40;;;;;;;1.80;1.20;;;;;;;-2.42;73.38;99648.72;5113355;28;39784;-79
2023/02/27 02:16:30;;;;;;;1.50;1.40;;;;;;;-2.50;73.63;99631.41;5111588;28;41439;-78
2023/02/27 02:19:09;;;;;;;1.40;1.10;;;;;;;-2.44;74.26;99652.16;5096330;28;41622;-78
2023/02/27 02:22:10;;;;;;;2.40;1.37;;;;;;;-2.42;74.12;99650.44;5096661;28;42070;-79
2023/02/27 02:24:57;;;;;;;4.30;1.53;;;;;;;-2.43;73.99;99654.78;5073286;28;39610;-78
2023/02/27 02:27:37;;;;;;;2.53;1.27;;;;;;;-2.44;74.15;99649.56;5110509;28;41882;-78
2023/02/27 02:30:46;;;;;;;1.47;1.17;;;;;;;-2.47;74.79;99647.00;5096341;28;42629;-78
2023/02/27 02:33:50;;;;;;;2.23;1.37;;;;;;;-2.47;74.78;99641.81;5114330;28;42275;-78
2023/02/27 02:36:46;;;;;;;2.03;1.30;;;;;;;-2.47;74.85;99647.81;5110591;28;40119;-78
2023/02/27 02:39:33;;;;;;;1.47;1.37;;;;;;;-2.45;74.84;99646.13;5147233;27;41661;-78
2023/02/27 02:42:05;;;;;;;3.50;1.97;;;;;;;-2.43;74.48;99644.38;5144726;27;42954;-78
2023/02/27 02:44:50;;;;;;;2.27;1.40;;;;;;;-2.59;74.83;99630.53;5146330;27;42206;-78
2023/02/27 02:47:26;;;;;;;2.23;1.23;;;;;;;-2.47;74.99;99650.44;5096408;28;38832;-79
2023/02/27 02:50:01;;;;;;;2.23;1.43;;;;;;;-2.42;74.65;99650.44;5146720;27;42655;-78
2023/02/27 02:52:39;;;;;;;3.23;1.20;;;;;;;-2.55;74.47;99636.59;5130102;27;44550;-78
2023/02/27 02:55:14;;;;;;;1.87;1.43;;;;;;;-2.42;74.47;99655.63;5129943;27;42202;-78
2023/02/27 02:57:48;;;;;;;1.80;1.10;;;;;;;-2.42;74.37;99653.91;5110110;28;40134;-78
2023/02/27 03:00:21;;;;;;;3.17;1.23;;;;;;;-2.41;74.28;99657.38;5095915;28;40744;-78
2023/02/27 03:02:53;;;;;;;3.20;1.40;;;;;;;-2.44;74.36;99658.22;5095924;28;42152;-78
2023/02/27 03:05:26;;;;;;;1.90;1.23;;;;;;;-2.53;74.10;99638.31;5147260;27;43241;-78
2023/02/27 03:07:59;;;;;;;2.70;1.67;;;;;;;-2.43;74.41;99654.78;5113034;28;39039;-78
2023/02/27 03:10:33;;;;;;;3.23;1.33;;;;;;;-2.43;74.02;99652.16;5095684;28;40886;-78
2023/02/27 03:13:07;;;;;;;1.20;1.17;;;;;;;-2.44;73.89;99653.03;5129711;27;42648;-79
2023/02/27 03:15:45;;;;;;;2.07;1.27;;;;;;;-2.47;73.88;99658.19;5130343;27;42639;-79
2023/02/27 03:18:19;;;;;;;2.37;1.60;;;;;;;-2.48;74.04;99663.41;5108791;28;40949;-78
2023/02/27 03:20:51;;;;;;;3.80;1.40;;;;;;;-2.51;74.01;99647.84;5130058;27;41064;-78
2023/02/27 03:23:24;;;;;;;1.87;1.07;;;;;;;-2.62;74.02;99646.09;5143952;27;43753;-79
2023/02/27 03:25:55;;;;;;;2.87;1.20;;;;;;;-2.55;73.89;99665.97;5109434;28;42263;-78
2023/02/27 03:28:26;;;;;;;1.77;1.43;;;;;;;-2.54;73.83;99669.44;5144110;27;40221;-79
2023/02/27 03:31:04;;;;;;;1.50;1.13;;;;;;;-2.65;73.89;99648.66;5095807;28;42220;-79
2023/02/27 03:33:38;;;;;;;1.53;1.10;;;;;;;-2.57;73.77;99675.47;5095855;28;42775;-78
2023/02/27 03:36:14;;;;;;;1.10;1.00;;;;;;;-2.58;73.79;99675.47;5129620;27;41516;-79
2023/02/27 03:38:47;;;;;;;2.77;1.40;;;;;;;-2.63;74.01;99667.69;5095347;28;39154;-78
2023/02/27 08:57:20;;;;;;;2.20;1.20;;;;;;;17.19;26.57;100041.63;5109161;28;20535;-82
2023/02/27 08:59:49;;;;;;;1.50;1.30;;;;;;;18.48;25.99;100033.03;5091778;28;38763;-83
2023/02/27 09:02:17;;;;;;;1.93;1.73;;;;;;;19.76;23.36;100045.28;5087951;28;41908;-83
2023/02/27 09:04:44;;;;;;;1.50;1.40;;;;;;;20.99;22.24;100048.31;5088449;28;43127;-83
2023/02/27 09:07:12;;;;;;;2.53;1.50;;;;;;;21.81;21.70;100051.81;5103586;28;41901;-79
2023/02/27 09:09:39;;;;;;;1.47;1.37;;;;;;;23.00;20.55;100046.16;5108911;28;39714;-78
2023/02/27 09:12:07;;;;;;;1.77;1.43;;;;;;;23.73;20.06;100033.69;5108337;28;41994;-84
2023/02/27 09:14:37;;;;;;;2.03;1.40;;;;;;;23.65;18.89;100055.22;5108027;28;42732;-78
2023/02/27 09:17:05;;;;;;;1.73;1.50;;;;;;;24.06;19.25;100047.56;5090316;28;40850;-81
2023/02/27 09:19:32;;;;;;;1.80;1.40;;;;;;;23.05;18.92;100056.56;5108574;28;39906;-84
2023/02/27 09:22:00;;;;;;;1.40;1.30;;;;;;;24.06;19.56;100044.88;5107257;28;40872;-80
2023/02/27 09:24:28;;;;;;;1.13;1.10;;;;;;;24.76;17.90;100045.88;5108113;28;42710;-83
2023/02/27 09:26:56;;;;;;;1.57;1.23;;;;;;;25.87;17.85;100029.59;5109459;27;42750;-82
2023/02/27 09:29:26;;;;;;;1.80;1.40;;;;;;;25.76;16.61;100046.19;5087798;28;39971;-83
2023/02/27 09:31:55;;;;;;;1.40;1.30;;;;;;;25.30;17.14;100044.75;5100159;28;42161;-80
2023/02/27 09:34:23;;;;;;;2.30;1.30;;;;;;;25.23;17.59;100020.13;5107598;28;42827;-81
2023/02/27 09:36:51;;;;;;;1.50;1.40;;;;;;;24.54;17.20;100037.25;5106437;28;41355;-82
2023/02/27 09:39:19;;;;;;;1.60;1.50;;;;;;;24.45;18.09;99984.03;5090599;28;38969;-82
2023/02/27 09:41:53;;;;;;;2.00;1.60;;;;;;;25.56;17.10;100025.72;5106217;28;42066;-81
2023/02/27 09:44:35;;;;;;;1.60;1.50;;;;;;;24.77;16.44;100039.44;5090291;28;43109;-84
2023/02/27 09:47:07;;;;;;;2.03;1.20;;;;;;;23.57;18.24;100022.66;5106620;28;42682;-83
2023/02/27 09:49:47;;;;;;;2.40;1.30;;;;;;;21.93;19.55;100005.81;5090169;28;39964;-78
2023/02/27 09:52:15;;;;;;;1.10;1.07;;;;;;;19.29;23.09;99971.16;5106343;28;40397;-78
2023/02/27 09:54:43;;;;;;;1.40;1.30;;;;;;;16.95;23.48;99980.94;5107439;28;41933;-83
2023/02/27 09:57:18;;;;;;;1.57;1.37;;;;;;;15.04;25.80;99936.81;5090161;28;41042;-85
2023/02/27 09:59:50;;;;;;;1.53;1.33;;;;;;;14.82;26.82;99955.97;5108998;28;39499;-83
2023/02/27 10:02:33;;;;;;;2.33;1.23;;;;;;;17.74;24.18;99972.53;5107290;28;40721;-81
2023/02/27 10:05:07;;;;;;;1.90;1.40;;;;;;;20.51;22.05;99987.94;5090636;28;43302;-82
2023/02/27 10:07:43;;;;;;;1.37;1.27;;;;;;;22.35;20.02;99985.72;5079432;28;42011;-82
2023/02/27 10:10:21;;;;;;;1.40;1.20;;;;;;;23.04;18.92;100012.47;5072238;28;39873;-82
2023/02/27 10:13:06;;;;;;;1.80;1.70;;;;;;;24.53;18.54;100016.56;5070624;28;42595;-82
2023/02/27 10:15:39;;;;;;;1.40;1.30;;;;;;;24.84;18.63;100005.31;5073873;28;43764;-82
2023/02/27 10:18:15;;;;;;;2.90;1.40;;;;;;;25.05;18.53;100005.81;5090833;28;42474;-82
2023/02/27 10:20:53;;;;;;;1.50;1.40;;;;;;;24.72;17.69;100029.09;5091454;28;39641;-83
2023/02/27 10:23:29;;;;;;;1.70;1.40;;;;;;;25.60;17.38;100032.50;5091642;28;41442;-78
2023/02/27 10:25:57;;;;;;;1.90;1.70;;;;;;;26.12;16.62;99990.59;5092450;28;42824;-80
2023/02/27 10:28:26;;;;;;;1.83;1.40;;;;;;;27.46;16.36;100032.63;5093350;28;40999;-81
2023/02/27 10:30:57;;;;;;;1.30;1.20;;;;;;;28.55;15.25;100038.03;5075386;28;38600;-81
2023/02/27 10:33:32;;;;;;;1.83;1.30;;;;;;;28.43;15.37;100005.94;5091287;28;42732;-82
2023/02/27 10:36:01;;;;;;;2.23;1.60;;;;;;;28.84;14.75;100036.44;5092075;28;42935;-79
2023/02/27 10:38:33;;;;;;;1.47;1.37;;;;;;;27.99;14.97;100035.66;5094330;28;43069;-79
2023/02/27 10:41:03;;;;;;;1.83;1.37;;;;;;;24.26;16.32;100030.19;5090636;28;40050;-78
2023/02/27 10:43:31;;;;;;;1.97;1.47;;;;;;;21.43;18.42;100012.09;5075859;28;40796;-79
2023/02/27 10:46:01;;;;;;;3.40;1.60;;;;;;;22.18;19.50;99994.50;5093001;28;44368;-80
2023/02/27 10:48:32;;;;;;;1.57;1.40;;;;;;;22.67;18.63;100019.63;5093050;28;41819;-80
2023/02/27 10:51:22;;;;;;;2.47;1.33;;;;;;;20.34;19.61;100006.31;5075053;28;39056;-79
2023/02/27 10:53:52;;;;;;;4.07;1.40;;;;;;;19.19;21.06;100002.44;5091053;28;42800;-79
2023/02/27 10:56:26;;;;;;;1.90;1.30;;;;;;;18.77;21.35;100010.22;5091010;28;41893;-78
2023/02/27 10:59:05;;;;;;;1.47;1.37;;;;;;;16.86;22.47;99991.34;5092410;28;42191;-78
2023/02/27 11:01:44;;;;;;;2.90;1.30;;;;;;;19.00;22.97;99977.06;5092977;28;39873;-77
2023/02/27 11:04:14;;;;;;;1.73;1.37;;;;;;;19.82;20.70;100000.91;5092383;28;40377;-78
2023/02/27 11:06:42;;;;;;;1.20;1.10;;;;;;;18.57;21.41;99979.53;5071027;28;42779;-80
2023/02/27 11:09:21;;;;;;;1.63;1.37;;;;;;;18.94;22.06;99971.28;5055476;28;42530;-81
2023/02/27 11:11:49;;;;;;;1.90;1.40;;;;;;;20.69;21.10;99964.78;5084902;28;39738;-83
2023/02/27 11:14:27;;;;;;;3.43;1.30;;;;;;;19.50;20.65;99985.59;5092926;28;42757;-82
2023/02/27 11:16:56;;;;;;;1.70;1.30;;;;;;;17.34;22.00;99967.38;5091541;28;41545;-81
2023/02/27 11:19:31;;;;;;;1.90;1.30;;;;;;;17.51;23.14;99977.72;5074644;28;41405;-83
2023/02/27 11:22:07;;;;;;;1.30;1.20;;;;;;;15.99;23.99;99961.69;5075252;28;39769;-79
2023/02/27 11:24:35;;;;;;;2.13;1.50;;;;;;;15.62;24.88;99965.09;5058732;28;40930;-80
2023/02/27 11:27:16;;;;;;;1.57;1.37;;;;;;;14.86;25.62;99946.81;5091130;28;42788;-82
2023/02/27 11:29:57;;;;;;;2.77;1.60;;;;;;;15.13;25.50;99954.88;5089591;28;43251;-81
2023/02/27 11:32:31;;;;;;;2.27;1.30;;;;;;;14.24;26.19;99905.34;5092675;28;38792;-80
2023/02/27 11:35:00;;;;;;;2.27;1.67;;;;;;;13.58;26.71;99932.38;5092196;28;41723;-81
2023/02/27 11:37:32;;;;;;;1.30;1.20;;;;;;;13.81;27.99;99918.56;5091382;28;42680;-77
2023/02/27 11:40:12;;;;;;;1.40;1.30;;;;;;;13.60;28.13;99922.47;5091961;28;42194;-77
2023/02/27 11:42:45;;;;;;;2.47;1.20;;;;;;;12.95;28.52;99911.09;5088662;28;39978;-76
2023/02/27 11:45:28;;;;;;;1.50;1.27;;;;;;;12.48;29.25;99885.31;5075028;28;40630;-79
2023/02/27 11:48:00;;;;;;;2.47;1.50;;;;;;;12.10;29.63;99910.38;5090125;28;43660;-79
2023/02/27 11:50:56;;;;;;;2.33;1.50;;;;;;;12.31;28.95;99909.25;5074845;28;41555;-78
2023/02/27 11:54:02;;;;;;;1.90;1.43;;;;;;;14.58;27.18;99915.69;5074888;28;39269;-78
2023/02/27 11:56:34;;;;;;;1.20;1.10;;;;;;;16.79;24.56;99927.69;5071526;28;41544;-78
2023/02/27 11:59:06;;;;;;;2.43;1.43;;;;;;;16.01;25.01;99921.50;5074914;28;42052;-79
2023/02/27 12:01:43;;;;;;;1.30;1.10;;;;;;;17.31;24.78;99922.06;5070699;28;42288;-82
2023/02/27 12:04:18;;;;;;;1.93;1.37;;;;;;;19.58;23.03;99932.06;5055086;28;39200;-80
2023/02/27 12:06:52;;;;;;;1.23;1.17;;;;;;;17.90;22.89;99933.75;5090752;28;42078;-79
2023/02/27 12:09:38;;;;;;;1.30;1.20;;;;;;;18.32;22.91;99931.44;5074818;28;42061;-79
2023/02/27 12:12:16;;;;;;;1.37;1.20;;;;;;;18.70;23.35;99898.94;5091135;28;42336;-78
2023/02/27 12:14:53;;;;;;;1.30;1.20;;;;;;;20.36;21.55;99875.25;5091571;28;38910;-79
2023/02/27 12:17:26;;;;;;;1.90;1.37;;;;;;;20.03;21.08;99926.50;5087452;28;42556;-78
2023/02/27 12:20:06;;;;;;;2.90;1.20;;;;;;;21.47;20.89;99934.50;5074273;28;42101;-79
2023/02/27 12:22:37;;;;;;;2.87;2.10;;;;;;;22.94;19.94;99927.88;5088703;28;42251;-78
2023/02/27 12:25:11;;;;;;;1.50;1.10;;;;;;;24.41;18.78;99931.16;5091221;28;38678;-78
2023/02/27 12:27:46;;;;;;;1.40;1.30;;;;;;;24.90;16.86;99947.75;5073802;28;40285;-81
2023/02/27 12:30:19;;;;;;;1.63;1.40;;;;;;;25.65;16.93;99944.22;5089519;28;42298;-81
2023/02/27 12:32:53;;;;;;;1.70;1.50;;;;;;;27.03;16.30;99946.09;5070589;28;41267;-81
2023/02/27 12:35:27;;;;;;;1.70;1.30;;;;;;;28.13;15.80;99950.47;5087952;28;38853;-80
2023/02/27 12:37:57;;;;;;;3.70;1.33;;;;;;;29.38;14.55;99960.69;5108196;28;42336;-79
2023/02/27 12:40:31;;;;;;;1.37;1.20;;;;;;;29.36;14.23;99959.16;5124231;27;42941;-78
2023/02/27 12:43:12;;;;;;;2.20;1.60;;;;;;;28.12;14.63;99949.59;5107789;28;42142;-81
2023/02/27 12:46:18;;;;;;;2.60;1.47;;;;;;;27.06;14.98;99956.63;5090009;28;40035;-82
2023/02/27 12:49:00;;;;;;;1.47;1.20;;;;;;;24.48;16.34;99932.22;5074995;28;41710;-81
2023/02/27 12:51:44;;;;;;;1.40;1.20;;;;;;;22.20;17.94;99933.16;5069849;28;41786;-79
2023/02/27 12:54:24;;;;;;;1.70;1.60;;;;;;;22.65;16.94;99949.56;5070396;28;41355;-78
2023/02/27 12:57:05;;;;;;;2.03;1.00;;;;;;;21.47;18.03;99939.91;5084360;28;39697;-77
2023/02/27 12:59:57;;;;;;;1.83;1.13;;;;;;;20.61;19.32;99929.63;5087724;28;41861;-79
2023/02/27 13:02:48;;;;;;;1.20;0.97;;;;;;;21.35;19.62;99922.16;5089613;28;43571;-79
2023/02/27 13:05:45;;;;;;;1.80;1.20;;;;;;;21.55;19.06;99921.19;5073463;28;42662;-78
2023/02/27 13:08:22;;;;;;;2.87;1.53;;;;;;;20.22;19.48;99918.59;5066414;28;41025;-78
2023/02/27 13:10:59;;;;;;;1.50;1.03;;;;;;;18.43;20.76;99903.75;5072416;28;42142;-78
2023/02/27 13:13:34;;;;;;;1.70;1.20;;;;;;;17.20;21.71;99903.25;5073876;28;42805;-81
2023/02/27 13:16:06;;;;;;;1.20;1.07;;;;;;;16.52;22.43;99899.22;5073952;28;42403;-81
2023/02/27 13:18:44;;;;;;;1.50;1.40;;;;;;;15.64;23.07;99888.41;5092063;28;39387;-80
2023/02/27 13:21:18;;;;;;;1.37;1.20;;;;;;;15.08;24.24;99888.47;5088849;28;40838;-81
2023/02/27 13:24:00;;;;;;;2.30;1.20;;;;;;;14.46;25.02;99889.81;5089850;28;43734;-78
2023/02/27 13:26:36;;;;;;;1.00;1.00;;;;;;;13.91;25.28;99893.13;5087017;28;42510;-78
2023/02/27 13:29:05;;;;;;;2.10;1.20;;;;;;;13.53;26.33;99874.06;5073785;28;39248;-80
2023/02/27 13:31:39;;;;;;;1.70;1.17;;;;;;;13.44;26.10;99881.75;5090171;28;41799;-82
2023/02/27 13:34:16;;;;;;;2.90;1.33;;;;;;;12.71;26.35;99860.13;5073718;28;41702;-78
2023/02/27 13:36:49;;;;;;;2.00;1.10;;;;;;;12.33;27.54;99869.31;5088787;28;43381;-78
2023/02/27 13:39:40;;;;;;;1.20;0.90;;;;;;;11.79;27.86;99863.31;5087583;28;39981;-80
2023/02/27 13:42:45;;;;;;;2.60;1.07;;;;;;;11.38;28.90;99854.75;5092078;28;41674;-83
2023/02/27 13:45:51;;;;;;;1.10;1.00;;;;;;;10.85;29.24;99842.34;5092318;28;42505;-77
2023/02/27 13:48:42;;;;;;;1.27;1.17;;;;;;;10.34;30.79;99838.53;5089694;28;42619;-77
2023/02/27 13:51:26;;;;;;;2.23;1.33;;;;;;;10.55;30.38;99846.41;5092135;28;39590;-76
2023/02/27 13:54:22;;;;;;;1.57;1.10;;;;;;;10.62;31.11;99837.28;5091118;28;40786;-79
2023/02/27 13:57:05;;;;;;;1.30;1.20;;;;;;;10.49;30.61;99842.28;5071441;28;43213;-80
2023/02/27 13:59:35;;;;;;;1.00;0.90;;;;;;;9.79;30.47;99833.94;5069916;28;42530;-79
2023/02/27 14:02:26;;;;;;;4.60;1.20;;;;;;;9.54;31.16;99834.16;5072875;28;39931;-79
2023/02/27 14:04:57;;;;;;;1.33;0.97;;;;;;;9.37;30.98;99842.81;5071568;28;41644;-79
2023/02/27 14:07:28;;;;;;;1.20;1.10;;;;;;;9.39;31.78;99838.34;5073401;28;42800;-78
2023/02/27 14:10:04;;;;;;;2.43;0.97;;;;;;;9.88;30.69;99817.69;5075826;28;42222;-78
2023/02/27 14:12:34;;;;;;;1.53;1.03;;;;;;;10.17;30.77;99846.34;5074901;28;39174;-79
2023/02/27 14:15:04;;;;;;;1.63;0.97;;;;;;;10.19;31.10;99836.59;5109485;28;40622;-79
2023/02/27 14:17:44;;;;;;;1.77;0.90;;;;;;;10.00;30.30;99835.69;5075531;28;41470;-79
2023/02/27 14:20:34;;;;;;;1.17;1.03;;;;;;;9.65;30.81;99835.41;5090041;28;42037;-79
2023/02/27 14:23:20;;;;;;;2.10;1.17;;;;;;;9.11;31.16;99838.59;5091212;28;40531;-81
2023/02/27 14:25:53;;;;;;;1.10;1.00;;;;;;;8.86;31.58;99837.88;5093083;28;40750;-80
2023/02/27 14:28:26;;;;;;;1.13;0.80;;;;;;;8.60;32.00;99829.19;5093061;28;42865;-79
2023/02/27 14:30:58;;;;;;;1.00;0.90;;;;;;;8.26;32.51;99826.97;5091073;28;42285;-79
2023/02/27 14:33:34;;;;;;;1.23;1.07;;;;;;;8.08;32.90;99825.00;5089661;28;38861;-81
2023/02/27 14:36:06;;;;;;;1.23;0.60;;;;;;;8.39;32.54;99821.25;5076228;28;40710;-78
2023/02/27 14:38:37;;;;;;;1.20;1.00;;;;;;;8.46;32.25;99820.94;5090616;28;42072;-79
2023/02/27 14:41:14;;;;;;;1.10;0.87;;;;;;;9.18;31.86;99826.84;5092736;28;41752;-78
2023/02/27 14:43:45;;;;;;;1.00;0.70;;;;;;;9.71;31.17;99816.66;5105946;28;40361;-79
2023/02/27 14:46:22;;;;;;;1.27;0.97;;;;;;;10.11;30.17;99816.66;5109806;28;41845;-79
2023/02/27 14:48:55;;;;;;;1.00;0.90;;;;;;;10.70;29.79;99827.16;5122631;28;41822;-79
2023/02/27 14:51:25;;;;;;;2.50;1.23;;;;;;;10.63;29.92;99812.50;5112560;28;41174;-79
2023/02/27 14:54:04;;;;;;;1.73;1.30;;;;;;;10.91;29.14;99836.72;5093464;28;40204;-81
2023/02/27 14:56:33;;;;;;;1.40;0.67;;;;;;;10.58;29.73;99835.69;5074018;28;41530;-80
2023/02/27 14:59:01;;;;;;;0.90;0.90;;;;;;;10.01;30.01;99840.03;5089581;28;43038;-79
2023/02/27 15:01:35;;;;;;;2.00;1.00;;;;;;;9.19;31.02;99819.78;5075381;28;42470;-80
2023/02/27 15:04:07;;;;;;;1.97;1.17;;;;;;;8.86;31.78;99822.88;5089290;28;39954;-80
2023/02/27 15:06:37;;;;;;;1.90;1.20;;;;;;;8.49;32.13;99817.31;5074463;28;41685;-81
2023/02/27 15:09:06;;;;;;;1.90;1.03;;;;;;;8.17;32.55;99808.81;5089392;28;42910;-78
2023/02/27 15:11:35;;;;;;;0.97;0.80;;;;;;;7.87;33.25;99828.41;5074042;28;41189;-78
2023/02/27 15:14:06;;;;;;;1.00;0.90;;;;;;;7.69;33.17;99816.72;5089534;28;40269;-79
2023/02/27 15:16:37;;;;;;;1.70;1.30;;;;;;;7.39;33.61;99831.00;5091554;28;40859;-78
2023/02/27 15:19:14;;;;;;;1.63;1.20;;;;;;;6.98;34.09;99819.19;5089528;28;43344;-78
2023/02/27 15:21:45;;;;;;;3.00;1.20;;;;;;;6.82;34.30;99822.31;5088558;28;43094;-77
2023/02/27 15:24:23;;;;;;;2.37;1.30;;;;;;;6.69;34.81;99823.59;5090231;28;39197;-78
2023/02/27 15:26:53;;;;;;;1.57;0.97;;;;;;;6.63;35.74;99818.53;5073843;28;40999;-78
2023/02/27 15:29:25;;;;;;;2.20;1.13;;;;;;;6.56;35.99;99808.22;5088521;28;42495;-78
2023/02/27 15:31:53;;;;;;;1.73;1.00;;;;;;;6.50;35.98;99806.66;5090504;28;41103;-80
2023/02/27 15:34:22;;;;;;;1.80;1.23;;;;;;;6.33;37.03;99786.13;5089755;28;39454;-76
2023/02/27 15:36:53;;;;;;;1.80;1.37;;;;;;;6.37;37.00;99805.31;5090576;28;40923;-75
2023/02/27 15:39:23;;;;;;;3.00;1.33;;;;;;;6.37;37.03;99807.94;5089970;28;43543;-75
2023/02/27 15:41:53;;;;;;;1.10;1.00;;;;;;;6.38;37.60;99807.03;5091331;28;41802;-77
2023/02/27 15:44:25;;;;;;;2.37;1.20;;;;;;;6.05;37.64;99788.75;5073754;28;40170;-77
2023/02/27 15:46:54;;;;;;;1.47;1.10;;;;;;;6.17;37.42;99813.81;5088159;28;41751;-78
2023/02/27 15:49:25;;;;;;;1.37;1.13;;;;;;;6.09;37.85;99811.41;5090723;28;42464;-78
2023/02/27 15:52:00;;;;;;;1.30;1.10;;;;;;;6.00;37.63;99816.94;5074624;28;41121;-78
2023/02/27 15:54:33;;;;;;;2.77;1.03;;;;;;;6.05;38.12;99815.03;5087987;28;40641;-78
2023/02/27 15:57:03;;;;;;;2.77;1.00;;;;;;;6.02;38.02;99814.25;5074037;28;40692;-78
2023/02/27 15:59:35;;;;;;;1.50;1.07;;;;;;;5.87;38.33;99815.50;5090903;28;41705;-78
2023/02/27 16:02:05;;;;;;;2.00;1.10;;;;;;;5.74;38.44;99819.38;5088824;28;43529;-78
2023/02/27 16:04:34;;;;;;;2.57;1.20;;;;;;;5.68;38.66;99809.06;5090407;28;43822;-78
2023/02/27 16:07:05;;;;;;;2.03;1.57;;;;;;;5.61;39.09;99818.00;5090642;28;40839;-79
2023/02/27 16:09:36;;;;;;;3.43;1.60;;;;;;;5.37;39.45;99790.63;5071244;28;42768;-79
2023/02/27 16:12:21;;;;;;;3.03;1.50;;;;;;;5.32;39.93;99790.72;5054604;28;40944;-79
2023/02/27 16:14:52;;;;;;;2.83;1.30;;;;;;;5.22;40.66;99805.00;5071682;28;38864;-79
2023/02/27 16:17:26;;;;;;;1.17;1.07;;;;;;;5.08;41.06;99812.38;5072721;28;41571;-78
2023/02/27 16:19:56;;;;;;;1.43;1.00;;;;;;;4.94;40.95;99817.13;5108303;28;41654;-78
2023/02/27 16:22:24;;;;;;;1.90;1.30;;;;;;;4.62;41.36;99791.63;5124649;27;42000;-79
2023/02/27 16:24:53;;;;;;;1.57;1.10;;;;;;;4.60;41.66;99815.28;5092294;28;39935;-79
2023/02/27 16:27:24;;;;;;;1.67;1.30;;;;;;;4.47;41.81;99818.19;5091106;28;42232;-78
2023/02/27 16:29:54;;;;;;;1.73;1.20;;;;;;;4.38;42.09;99821.91;5072388;28;41883;-77
2023/02/27 16:32:25;;;;;;;1.37;1.20;;;;;;;4.28;42.91;99823.00;5088790;28;41568;-77
2023/02/27 16:35:02;;;;;;;1.67;1.00;;;;;;;4.22;42.69;99823.13;5090777;28;39878;-77
2023/02/27 16:37:36;;;;;;;2.90;1.47;;;;;;;4.20;42.50;99832.81;5088833;28;42288;-77
2023/02/27 16:40:13;;;;;;;1.70;1.30;;;;;;;4.08;42.83;99812.09;5073199;28;43469;-79
2023/02/27 16:42:40;;;;;;;1.97;1.50;;;;;;;4.19;43.44;99823.22;5090180;28;42355;-77
2023/02/27 16:45:13;;;;;;;1.87;1.33;;;;;;;4.26;43.41;99824.78;5090090;28;39137;-79
2023/02/27 16:47:41;;;;;;;1.60;1.50;;;;;;;4.18;44.15;99824.09;5089374;28;41040;-77
2023/02/27 16:50:17;;;;;;;3.07;2.33;;;;;;;4.14;43.87;99825.91;5090187;28;42603;-76
2023/02/27 16:52:44;;;;;;;2.73;1.83;;;;;;;4.07;44.87;99805.13;5068719;28;42528;-77
2023/02/27 16:55:12;;;;;;;1.90;1.70;;;;;;;4.05;44.56;99825.25;5070364;28;40842;-77
2023/02/27 16:57:39;;;;;;;3.93;1.50;;;;;;;3.88;44.86;99834.31;5073709;28;40742;-77
2023/02/27 17:00:11;;;;;;;2.20;1.73;;;;;;;3.75;44.66;99838.06;5072887;28;42844;-76
2023/02/27 17:02:38;;;;;;;1.90;1.60;;;;;;;3.59;45.18;99834.00;5089055;28;41398;-76
2023/02/27 17:05:07;;;;;;;2.50;1.60;;;;;;;3.46;45.53;99835.13;5089623;28;38561;-76
2023/02/27 17:07:36;;;;;;;2.27;1.57;;;;;;;3.37;45.70;99840.50;5089018;28;41965;-77
2023/02/27 17:10:05;;;;;;;2.10;1.70;;;;;;;3.25;45.78;99842.47;5090997;28;42725;-77
2023/02/27 17:12:32;;;;;;;3.30;1.83;;;;;;;3.17;46.29;99844.34;5090228;28;42300;-77
2023/02/27 17:15:00;;;;;;;2.20;1.50;;;;;;;3.11;46.24;99848.81;5089215;28;40043;-79
2023/02/27 17:17:28;;;;;;;2.77;1.80;;;;;;;3.03;46.71;99845.47;5090693;28;43128;-77
2023/02/27 17:19:55;;;;;;;2.07;1.73;;;;;;;2.96;46.79;99851.69;5093275;28;42736;-78
2023/02/27 17:22:23;;;;;;;2.80;2.00;;;;;;;2.86;47.79;99848.34;5093816;28;42144;-78